createdAt,value
2023-01-13T00:04:07.129Z,35.1
2023-01-13T00:09:09.357Z,33.2
2023-01-13T00:14:11.348Z,34
2023-01-13T00:19:13.587Z,32.3
2023-01-13T00:24:15.641Z,33.1
2023-01-13T00:29:17.689Z,30.6
2023-01-13T00:34:19.735Z,31.1
2023-01-13T00:39:22.205Z,31.6
2023-01-13T00:44:24.199Z,29
2023-01-13T00:49:26.448Z,33.1
2023-01-13T00:54:28.349Z,30.6
2023-01-13T00:59:32.751Z,31.9
2023-01-13T01:04:34.787Z,33.1
2023-01-13T01:09:36.743Z,35.9
2023-01-13T01:14:38.710Z,36.6
2023-01-13T01:19:40.840Z,35.5
2023-01-13T01:24:43.135Z,34.5
2023-01-13T01:29:45.249Z,31.9
2023-01-13T01:34:47.933Z,28.4
2023-01-13T01:39:49.916Z,27.6
2023-01-13T01:44:52.187Z,28.4
2023-01-13T01:49:54.156Z,27.9
2023-01-13T01:54:56.311Z,27.2
2023-01-13T01:59:58.489Z,28.6
2023-01-13T02:05:00.480Z,52.9
2023-01-13T02:10:00.872Z,54.7
2023-01-13T02:15:01.222Z,38.7
2023-01-13T02:20:03.392Z,34.4
2023-01-13T02:25:05.288Z,39.7
2023-01-13T02:30:07.910Z,33.2
2023-01-13T02:35:10.171Z,71.4
2023-01-13T02:40:10.569Z,35.5
2023-01-13T02:45:12.529Z,37.2
2023-01-13T02:50:14.461Z,32.7
2023-01-13T02:55:16.359Z,36.2
2023-01-13T03:00:18.372Z,35.8
2023-01-13T03:05:20.321Z,33.4
2023-01-13T03:10:22.501Z,34.5
2023-01-13T03:15:24.676Z,34.8
2023-01-13T03:20:26.984Z,38.7
2023-01-13T03:25:29.029Z,35.2
2023-01-13T03:30:31.032Z,36.5
2023-01-13T03:35:33.238Z,34
2023-01-13T03:40:35.622Z,60.2
2023-01-13T03:45:36.077Z,32.7
2023-01-13T03:50:38.499Z,29.9
2023-01-13T03:55:40.457Z,29.9
2023-01-13T04:00:42.565Z,27.7
2023-01-13T04:05:44.566Z,26.7
2023-01-13T04:10:46.562Z,26.5
2023-01-13T04:15:48.543Z,26
2023-01-13T04:20:51.181Z,33.1
2023-01-13T04:25:53.288Z,27.8
2023-01-13T04:30:55.361Z,27.6
2023-01-13T04:35:57.843Z,22.8
2023-01-13T04:41:00.402Z,23.8
2023-01-13T04:46:02.407Z,22.6
2023-01-13T04:51:04.644Z,25
2023-01-13T04:56:06.621Z,23.5
2023-01-13T05:01:08.679Z,22.6
2023-01-13T05:06:11.374Z,27.6
2023-01-13T05:11:13.433Z,23.9
2023-01-13T05:16:18.455Z,22.5
2023-01-13T05:21:21.157Z,22.6
2023-01-13T05:26:23.860Z,22.5
2023-01-13T05:31:25.959Z,21
2023-01-13T05:36:29.537Z,41
2023-01-13T05:41:29.957Z,24.9
2023-01-13T05:46:31.963Z,28.1
2023-01-13T05:51:34.760Z,53.2
2023-01-13T05:56:43.438Z,48.9
2023-01-13T06:01:46.160Z,56.9
2023-01-13T06:06:48.238Z,50.3
2023-01-13T06:11:50.314Z,48.6
2023-01-13T06:16:52.291Z,38.8
2023-01-13T06:21:55.148Z,34.7
2023-01-13T06:26:57.085Z,36.7
2023-01-13T06:31:59.281Z,54.2
2023-01-13T06:37:01.705Z,57
2023-01-13T06:42:04.299Z,46.1
2023-01-13T06:47:06.530Z,40.2
2023-01-13T06:52:08.612Z,46.2
2023-01-13T06:57:10.679Z,52.6
2023-01-13T07:02:12.892Z,54
2023-01-13T07:07:15.431Z,44
2023-01-13T07:12:17.528Z,46.5
2023-01-13T07:17:25.187Z,46.4
2023-01-13T07:22:31.252Z,39.2
2023-01-13T07:27:33.346Z,47.3
2023-01-13T07:32:35.437Z,44
2023-01-13T07:37:37.547Z,39.4
2023-01-13T07:42:39.662Z,35.1
2023-01-13T07:47:43.256Z,33.6
2023-01-13T07:52:43.750Z,33.8
2023-01-13T07:57:46.809Z,35.5
2023-01-13T08:02:49.794Z,31.8
2023-01-13T08:07:54.242Z,65.8
2023-01-13T08:12:56.981Z,30.8
2023-01-13T08:17:59.344Z,31.8
2023-01-13T08:23:02.023Z,31.8
2023-01-13T08:28:07.463Z,34.2
2023-01-13T08:33:09.602Z,32.4
2023-01-13T08:38:18.633Z,30.9
2023-01-13T08:43:28.546Z,33.2
2023-01-13T08:58:42.029Z,31.9
2023-01-13T09:03:44.087Z,31.5
2023-01-13T09:08:46.186Z,32.7
2023-01-13T09:13:48.728Z,31.9
2023-01-13T09:18:50.758Z,33.3
2023-01-13T09:23:52.898Z,35.3
2023-01-13T09:28:55.022Z,35.9
2023-01-13T09:33:57.064Z,34.9
2023-01-13T09:38:59.157Z,37.6
2023-01-13T09:44:01.245Z,35.6
2023-01-13T09:49:03.386Z,35.3
2023-01-13T09:54:05.342Z,31.6
2023-01-13T09:59:07.408Z,34
2023-01-13T10:04:10.295Z,32.3
2023-01-13T10:09:12.306Z,38.2
2023-01-13T10:14:14.589Z,31.5
2023-01-13T10:19:17.170Z,30.6
2023-01-13T10:24:19.723Z,29.8
2023-01-13T10:29:21.962Z,28.6
2023-01-13T10:34:24.241Z,27.9
2023-01-13T10:39:26.361Z,28.1
2023-01-13T10:44:28.948Z,31.1
2023-01-13T10:49:31.058Z,27.5
2023-01-13T10:54:33.332Z,30
2023-01-13T10:59:35.595Z,26.9
2023-01-13T11:04:37.895Z,26.8
2023-01-13T11:09:40.208Z,28.4
2023-01-13T11:14:42.435Z,26.1
2023-01-13T11:19:44.501Z,24.9
2023-01-13T11:24:46.704Z,23.4
2023-01-13T11:29:52.154Z,21.9
2023-01-13T11:34:55.080Z,20.1
2023-01-13T11:39:57.203Z,21.7
2023-01-13T11:45:00.753Z,19.6
2023-01-13T11:50:04.422Z,17
2023-01-13T11:55:06.617Z,17.3
2023-01-13T12:00:08.920Z,15.6
2023-01-13T12:05:12.568Z,17.5
2023-01-13T12:10:14.797Z,17
2023-01-13T12:15:18.480Z,16.4
2023-01-13T12:20:20.846Z,17.4
2023-01-13T12:25:23.510Z,17.3
2023-01-13T12:30:25.848Z,16.4
2023-01-13T12:35:28.267Z,16
2023-01-13T12:40:30.556Z,17.6
2023-01-13T12:45:32.637Z,16.2
2023-01-13T12:50:35.038Z,17.2
2023-01-13T12:55:37.151Z,18.2
2023-01-13T13:00:39.535Z,18.4
2023-01-13T13:05:42.024Z,17.8
2023-01-13T13:10:44.926Z,20.7
2023-01-13T13:15:47.272Z,20.3
2023-01-13T13:20:49.507Z,18.9
2023-01-13T13:25:51.875Z,18.6
2023-01-13T13:30:56.055Z,20.5
2023-01-13T13:35:58.765Z,17.7
2023-01-13T13:41:00.941Z,16.9
2023-01-13T13:46:03.231Z,19.3
2023-01-13T13:51:05.804Z,19.4
2023-01-13T13:56:08.028Z,20.2
2023-01-13T14:01:10.184Z,19.8
2023-01-13T14:06:13.062Z,20.1
2023-01-13T14:11:15.628Z,20.9
2023-01-13T14:16:17.793Z,22.1
2023-01-13T14:21:19.920Z,23.2
2023-01-13T14:26:24.781Z,23.6
2023-01-13T14:31:31.080Z,22.6
2023-01-13T14:36:33.540Z,21.6
2023-01-13T14:41:35.859Z,22.9
2023-01-13T14:46:38.362Z,22
2023-01-13T14:51:41.096Z,26.3
2023-01-13T14:56:43.400Z,21.8
2023-01-13T15:01:45.653Z,21.4
2023-01-13T15:06:48.559Z,20.3
2023-01-13T15:11:50.598Z,23.4
2023-01-13T15:16:52.932Z,25.4
2023-01-13T15:21:55.338Z,24.9
2023-01-13T15:26:57.616Z,28.8
2023-01-13T15:32:02.618Z,29.1
2023-01-13T15:37:04.931Z,24.4
2023-01-13T15:42:07.227Z,23.8
2023-01-13T15:47:09.412Z,22.7
2023-01-13T15:52:13.537Z,24.5
2023-01-13T15:57:15.813Z,26.4
2023-01-13T16:02:17.941Z,24.5
2023-01-13T16:07:20.392Z,24.4
2023-01-13T16:12:22.912Z,25.1
2023-01-13T16:17:25.102Z,24.3
2023-01-13T16:22:27.356Z,25
2023-01-13T16:27:30.347Z,24.1
2023-01-13T16:32:33.134Z,25.6
2023-01-13T16:37:37.400Z,27
2023-01-13T16:42:39.629Z,27.3
2023-01-13T16:47:41.767Z,24.9
2023-01-13T16:52:45.067Z,27.5
2023-01-13T16:57:47.257Z,26.5
2023-01-13T17:02:49.402Z,26.5
2023-01-13T17:07:51.504Z,27.9
2023-01-13T17:12:53.645Z,27.5
2023-01-13T17:23:00.594Z,26
2023-01-13T17:28:03.019Z,28
2023-01-13T17:33:05.193Z,29.1
2023-01-13T17:38:07.230Z,24.3
2023-01-13T17:43:09.755Z,27.8
2023-01-13T17:48:11.845Z,24.3
2023-01-13T17:53:14.168Z,25.7
2023-01-13T17:58:16.504Z,26.2
2023-01-13T18:03:19.682Z,26.3
2023-01-13T18:08:21.755Z,29.4
2023-01-13T18:13:24.372Z,29.2
2023-01-13T18:18:26.545Z,29.2
2023-01-13T18:23:30.339Z,28.7
2023-01-13T18:28:32.639Z,31.2
2023-01-13T18:33:34.970Z,29.7
2023-01-13T18:38:37.171Z,29.7
2023-01-13T18:43:39.338Z,33.8
2023-01-13T18:48:41.593Z,30.4
2023-01-13T18:53:43.790Z,32
2023-01-13T18:58:46.065Z,34.2
2023-01-13T19:03:48.106Z,32
2023-01-13T19:08:50.178Z,31.4
2023-01-13T19:13:54.651Z,30.3
2023-01-13T19:18:57.332Z,32.7
2023-01-13T19:23:59.440Z,30
2023-01-13T19:29:02.976Z,29.6
2023-01-13T19:34:09.771Z,31.1
2023-01-13T19:39:12.130Z,29
2023-01-13T19:44:14.909Z,31.4
2023-01-13T19:49:17.376Z,31.3
2023-01-13T19:54:19.576Z,32
2023-01-13T19:59:22.025Z,34.1
2023-01-13T20:04:24.231Z,35.9
2023-01-13T20:09:26.588Z,38.9
2023-01-13T20:14:28.631Z,37.5
2023-01-13T20:19:30.882Z,36.4
2023-01-13T20:24:32.979Z,35.6
2023-01-13T20:29:35.316Z,32.6
2023-01-13T20:34:38.097Z,35.4
2023-01-13T20:39:40.152Z,35.7
2023-01-13T20:44:42.301Z,38.1
2023-01-13T20:49:44.632Z,38.4
2023-01-13T20:54:46.682Z,36.3
2023-01-13T20:59:48.840Z,34.8
2023-01-13T21:04:50.937Z,35
2023-01-13T21:09:53.128Z,32.9
2023-01-13T21:14:55.401Z,34.4
2023-01-13T21:19:57.962Z,40
2023-01-13T21:25:00.099Z,37.1
2023-01-13T21:30:02.609Z,39.5
2023-01-13T21:35:04.775Z,36.3
2023-01-13T21:40:06.991Z,37.7
2023-01-13T21:45:09.286Z,37.2
2023-01-13T21:50:11.288Z,37.3
2023-01-13T21:55:15.044Z,38
2023-01-13T22:00:17.706Z,39.9
2023-01-13T22:05:22.860Z,38.8
2023-01-13T22:10:26.200Z,38.9
2023-01-13T22:15:28.306Z,35.6
2023-01-13T22:20:30.624Z,37.8
2023-01-13T22:25:32.802Z,38.1
2023-01-13T22:30:35.952Z,38.4
2023-01-13T22:35:38.068Z,37
2023-01-13T22:40:40.292Z,42.9
2023-01-13T22:45:42.403Z,43.4
2023-01-13T22:50:44.676Z,40.8
2023-01-13T22:55:46.933Z,39.7
2023-01-13T23:00:48.961Z,37.5
2023-01-13T23:05:50.971Z,41.1
2023-01-13T23:10:53.162Z,41.9
2023-01-13T23:15:55.328Z,40.9
2023-01-13T23:20:57.418Z,43.1
2023-01-13T23:25:59.608Z,47.6
2023-01-13T23:31:01.910Z,46.2
2023-01-13T23:36:04.636Z,44.3
2023-01-13T23:41:06.730Z,46.8
2023-01-13T23:46:08.842Z,47.1
2023-01-13T23:51:11.190Z,51.6
2023-01-13T23:56:13.352Z,57.3
